Time;durP1;ratioP1;P1;durP2;ratioP2;P2;SDS_P1;SDS_P2;PMS_P1;PMS_P2;Temp;Humidity;BMP_temperature;BMP_pressure;BME280_temperature;BME280_humidity;BME280_pressure;Samples;Min_cycle;Max_cycle;Signal;HPM_P1;HPM_P2
2022/10/14 00:03:25;;;;;;;27.07;13.63;;;12.10;99.90;;;;;;20727581;28;20042;-78
2022/10/14 00:13:26;;;;;;;28.43;11.10;;;12.00;99.90;;;;;;20727236;28;20156;-79
2022/10/14 00:23:27;;;;;;;22.80;10.13;;;11.80;99.90;;;;;;20726492;28;20038;-81
2022/10/14 00:33:28;;;;;;;24.43;11.57;;;11.80;99.90;;;;;;20726110;28;20046;-80
2022/10/14 00:43:52;;;;;;;25.50;10.98;;;11.70;99.90;;;;;;20726722;28;20044;-81
2022/10/14 00:53:53;;;;;;;19.13;10.20;;;11.70;99.90;;;;;;20728063;28;20034;-81
2022/10/14 01:03:54;;;;;;;32.00;9.50;;;11.50;99.90;;;;;;20823506;28;20075;-80
2022/10/14 01:14:33;;;;;;;39.37;12.80;;;11.20;99.90;;;;;;20810138;28;20482;-80
2022/10/14 01:24:42;;;;;;;28.90;11.00;;;11.00;99.90;;;;;;20822977;22;20071;-78
2022/10/14 01:35:00;;;;;;;26.55;11.77;;;10.80;99.90;;;;;;20871207;28;20057;-78
2022/10/14 01:45:11;;;;;;;33.25;13.68;;;11.10;99.90;;;;;;20847056;28;20045;-78
2022/10/14 01:55:16;;;;;;;38.03;16.50;;;11.30;99.90;;;;;;20814916;28;20033;-78
2022/10/14 02:05:33;;;;;;;29.13;14.07;;;11.50;99.90;;;;;;20830436;28;20041;-78
2022/10/14 02:15:46;;;;;;;45.95;16.65;;;11.60;99.90;;;;;;20833737;28;20549;-78
2022/10/14 02:25:48;;;;;;;47.05;18.17;;;11.80;99.90;;;;;;20831451;28;20045;-78
2022/10/14 02:35:50;;;;;;;38.78;14.43;;;12.00;99.90;;;;;;20850526;28;20099;-78
2022/10/14 02:45:57;;;;;;;29.65;12.18;;;12.00;99.90;;;;;;20811885;28;20049;-78
2022/10/14 02:55:59;;;;;;;25.73;10.77;;;11.90;99.90;;;;;;20826445;28;20037;-78
2022/10/14 03:06:00;;;;;;;20.33;9.07;;;11.90;99.90;;;;;;20783280;28;20060;-78
2022/10/14 03:16:02;;;;;;;29.92;9.93;;;11.90;99.90;;;;;;20778461;28;20043;-78
2022/10/14 03:26:03;;;;;;;19.97;8.97;;;11.90;99.90;;;;;;20824186;28;20045;-78
2022/10/14 03:36:13;;;;;;;19.88;9.35;;;11.90;99.90;;;;;;20808251;28;20037;-78
2022/10/14 03:46:19;;;;;;;20.23;10.43;;;12.00;99.90;;;;;;20824161;28;20460;-78
2022/10/14 03:56:20;;;;;;;26.47;11.17;;;12.20;99.90;;;;;;20822305;28;20092;-79
2022/10/14 04:06:21;;;;;;;24.17;12.27;;;12.20;99.90;;;;;;20826397;28;20415;-78
2022/10/14 04:16:26;;;;;;;32.97;11.70;;;12.30;99.90;;;;;;20824496;28;20042;-79
2022/10/14 04:26:34;;;;;;;23.92;9.70;;;12.30;99.90;;;;;;20817945;28;20059;-75
2022/10/14 04:36:37;;;;;;;26.15;11.60;;;12.30;99.90;;;;;;20807009;28;20045;-74
2022/10/14 04:46:45;;;;;;;22.75;9.90;;;12.40;99.90;;;;;;20807352;28;20744;-75
2022/10/14 04:56:46;;;;;;;33.60;15.53;;;12.60;99.90;;;;;;20822321;28;20060;-74
2022/10/14 05:06:48;;;;;;;36.05;15.02;;;12.50;99.90;;;;;;20822325;28;20044;-76
2022/10/14 05:16:52;;;;;;;27.58;11.77;;;12.60;99.90;;;;;;20804742;28;20750;-76
2022/10/14 05:26:59;;;;;;;31.15;13.32;;;12.70;99.90;;;;;;20820693;28;20049;-76
2022/10/14 05:37:02;;;;;;;39.95;14.70;;;12.70;99.90;;;;;;20820121;28;20040;-76
2022/10/14 05:47:09;;;;;;;33.85;14.60;;;12.60;99.90;;;;;;20774892;28;20034;-75
2022/10/14 05:57:11;;;;;;;23.38;11.57;;;12.80;99.90;;;;;;20828537;28;20422;-75
2022/10/14 06:07:12;;;;;;;29.37;14.17;;;12.90;99.90;;;;;;20789091;28;20041;-80
2022/10/14 06:17:13;;;;;;;35.13;14.83;;;12.90;99.90;;;;;;20837526;28;20392;-79
2022/10/14 06:27:14;;;;;;;35.20;12.97;;;12.70;99.90;;;;;;20837124;28;20045;-80
2022/10/14 06:37:15;;;;;;;42.87;15.00;;;12.70;99.90;;;;;;20856344;28;20033;-79
2022/10/14 06:47:15;;;;;;;37.60;16.23;;;12.80;99.90;;;;;;20853357;28;20037;-80
2022/10/14 06:57:16;;;;;;;34.43;16.50;;;12.70;99.90;;;;;;20834210;28;20119;-80
2022/10/14 07:07:17;;;;;;;35.07;16.33;;;12.80;99.90;;;;;;20853018;28;20041;-80
2022/10/14 07:17:18;;;;;;;35.90;15.23;;;12.80;99.90;;;;;;20852928;28;20033;-79
2022/10/14 07:27:19;;;;;;;40.50;18.37;;;12.80;99.90;;;;;;20831162;28;20050;-78
2022/10/14 07:37:20;;;;;;;39.03;18.10;;;12.80;99.90;;;;;;20847089;28;20476;-80
2022/10/14 07:47:21;;;;;;;41.30;18.87;;;12.80;99.90;;;;;;20838279;28;20034;-79
2022/10/14 07:57:22;;;;;;;42.43;18.10;;;12.90;99.90;;;;;;20839944;28;20093;-78
2022/10/14 08:07:24;;;;;;;48.25;17.88;;;12.90;99.90;;;;;;20841912;28;20069;-78
2022/10/14 08:17:25;;;;;;;52.00;19.33;;;13.00;99.90;;;;;;20840695;28;20531;-78
2022/10/14 08:27:26;;;;;;;39.93;17.57;;;13.00;99.90;;;;;;20840187;28;20048;-78
2022/10/14 08:37:26;;;;;;;42.90;16.43;;;13.00;99.90;;;;;;20842225;28;20639;-79
2022/10/14 08:47:39;;;;;;;35.70;15.07;;;13.20;99.90;;;;;;20843022;28;20072;-79
2022/10/14 08:57:47;;;;;;;24.83;13.05;;;13.40;99.90;;;;;;20843543;28;20034;-79
2022/10/14 09:07:52;;;;;;;27.95;13.10;;;13.70;99.90;;;;;;20824999;28;20083;-78
2022/10/14 09:18:26;;;;;;;21.15;11.90;;;14.20;99.90;;;;;;20807325;28;20570;-78
2022/10/14 09:28:39;;;;;;;23.77;12.48;;;14.40;99.90;;;;;;20791998;28;20030;-78
2022/10/14 09:38:40;;;;;;;22.70;11.38;;;14.30;99.90;;;;;;20798878;28;20042;-77
2022/10/14 09:48:49;;;;;;;19.70;10.60;;;14.50;99.90;;;;;;20803027;28;20124;-78
2022/10/14 09:58:55;;;;;;;16.58;10.45;;;14.80;99.90;;;;;;20786148;28;20124;-77
2022/10/14 10:08:59;;;;;;;17.75;9.27;;;14.60;99.90;;;;;;20804535;28;20492;-79
2022/10/14 10:19:19;;;;;;;20.77;9.88;;;14.70;99.90;;;;;;20767896;28;20041;-77
2022/10/14 10:29:34;;;;;;;16.48;9.55;;;14.90;99.90;;;;;;20800510;28;20160;-77
2022/10/14 10:40:10;;;;;;;21.05;9.68;;;14.80;99.90;;;;;;20791386;28;20248;-77
2022/10/14 10:50:39;;;;;;;18.13;10.18;;;14.80;99.90;;;;;;20763991;28;20061;-78
2022/10/14 11:00:52;;;;;;;16.95;10.10;;;14.90;99.90;;;;;;20765566;28;20038;-78
2022/10/14 11:22:04;;;;;;;15.85;10.10;;;15.10;99.90;;;;;;20812361;28;20049;-79
2022/10/14 11:32:18;;;;;;;19.92;10.90;;;15.50;99.90;;;;;;20782182;28;20041;-79
2022/10/14 11:42:47;;;;;;;16.73;9.13;;;15.80;99.90;;;;;;20803703;28;20037;-79
2022/10/14 11:53:01;;;;;;;17.73;8.52;;;16.60;99.90;;;;;;20844351;28;20061;-79
2022/10/14 12:03:24;;;;;;;16.95;7.28;;;17.00;99.90;;;;;;20809195;28;20034;-79
2022/10/14 12:13:43;;;;;;;14.38;6.80;;;16.80;99.90;;;;;;20799436;28;20044;-78
2022/10/14 12:24:08;;;;;;;17.02;7.85;;;16.60;99.90;;;;;;20797385;28;20041;-77
2022/10/14 12:34:12;;;;;;;14.68;7.05;;;16.30;99.90;;;;;;20799836;28;20112;-77
2022/10/14 12:44:17;;;;;;;12.00;6.50;;;15.80;99.90;;;;;;20800861;28;20044;-78
2022/10/14 12:54:21;;;;;;;13.20;7.25;;;16.00;99.90;;;;;;20782085;28;20030;-79
2022/10/14 13:04:24;;;;;;;12.73;5.93;;;16.00;99.90;;;;;;20797003;28;20407;-79
2022/10/14 13:14:31;;;;;;;17.30;9.55;;;16.20;99.90;;;;;;20809826;28;20135;-78
2022/10/14 13:24:38;;;;;;;18.20;9.80;;;16.30;99.90;;;;;;20902044;22;20060;-82
2022/10/14 13:34:53;;;;;;;18.08;10.27;;;16.00;99.90;;;;;;21119754;28;20090;-79
2022/10/14 13:45:03;;;;;;;20.80;11.85;;;15.60;99.90;;;;;;21143994;28;20723;-80
2022/10/14 13:55:25;;;;;;;23.30;10.35;;;15.40;99.90;;;;;;21158481;28;20035;-81
2022/10/14 14:05:30;;;;;;;31.23;16.08;;;15.00;99.90;;;;;;21146196;28;20162;-80
2022/10/14 14:15:32;;;;;;;13.40;7.28;;;14.80;99.90;;;;;;21164143;28;20047;-82
2022/10/14 14:25:33;;;;;;;;;;;14.90;99.90;;;;;;21155264;27;20532;-80
2022/10/14 14:35:34;;;;;;;4.47;2.60;;;15.00;99.90;;;;;;21163354;28;20400;-79
2022/10/14 14:45:42;;;;;;;8.93;3.60;;;15.00;99.90;;;;;;21155524;28;20043;-79
2022/10/14 14:55:45;;;;;;;1.42;1.08;;;15.10;99.90;;;;;;21159634;28;20131;-79
2022/10/14 15:06:03;;;;;;;4.78;1.77;;;15.10;99.90;;;;;;21158699;28;20032;-80
2022/10/14 15:16:05;;;;;;;8.05;3.35;;;15.10;99.90;;;;;;21101823;28;20152;-81
2022/10/14 15:26:38;;;;;;;12.07;3.58;;;15.10;99.90;;;;;;21121186;27;20058;-81
2022/10/14 15:36:39;;;;;;;9.65;5.70;;;15.00;99.90;;;;;;21119053;28;20080;-81
2022/10/14 15:57:04;;;;;;;11.25;4.68;;;15.00;99.90;;;;;;21172172;28;20141;-80
2022/10/14 16:07:05;;;;;;;12.25;5.68;;;14.90;99.90;;;;;;21153221;27;20131;-79
2022/10/14 16:17:08;;;;;;;14.57;7.33;;;14.80;99.90;;;;;;21147686;27;20492;-78
2022/10/14 16:27:09;;;;;;;12.27;4.35;;;14.60;99.90;;;;;;21143629;27;20051;-80
2022/10/14 16:37:09;;;;;;;12.00;5.50;;;14.50;99.90;;;;;;21144423;28;20437;-80
2022/10/14 16:47:16;;;;;;;6.10;3.53;;;14.50;99.90;;;;;;21119167;28;20036;-80
2022/10/14 16:57:17;;;;;;;4.20;3.33;;;14.50;99.90;;;;;;21127377;28;20103;-80
2022/10/14 17:07:18;;;;;;;12.33;6.90;;;14.40;99.90;;;;;;21137106;28;20458;-80
2022/10/14 17:17:22;;;;;;;16.93;9.43;;;14.50;99.90;;;;;;21133421;28;20044;-80
2022/10/14 17:27:23;;;;;;;7.80;4.75;;;14.50;99.90;;;;;;21136225;28;20465;-79
2022/10/14 17:37:24;;;;;;;10.27;3.03;;;14.40;99.90;;;;;;21159907;28;20039;-80
2022/10/14 17:47:25;;;;;;;11.37;2.90;;;14.30;99.90;;;;;;21137496;28;20035;-81
2022/10/14 17:57:26;;;;;;;3.95;2.90;;;14.20;99.90;;;;;;21157098;28;20089;-80
2022/10/14 18:07:27;;;;;;;4.20;1.90;;;14.00;99.90;;;;;;21172339;27;20036;-78
2022/10/14 18:17:28;;;;;;;40.73;8.03;;;13.80;99.90;;;;;;21147472;27;20035;-79
2022/10/14 18:27:28;;;;;;;13.10;4.00;;;13.80;99.90;;;;;;21154425;27;20085;-79
2022/10/14 18:37:30;;;;;;;10.97;4.20;;;13.80;99.90;;;;;;21151966;27;20047;-80
2022/10/14 18:47:30;;;;;;;6.28;2.80;;;13.90;99.90;;;;;;21181810;27;20135;-80
2022/10/14 18:57:31;;;;;;;5.40;1.37;;;13.90;99.90;;;;;;21163836;28;20047;-80
2022/10/14 19:07:32;;;;;;;2.83;1.23;;;13.90;99.90;;;;;;21180989;28;20704;-80
2022/10/14 19:17:33;;;;;;;2.97;1.20;;;13.90;99.90;;;;;;21162181;28;20039;-80
2022/10/14 19:27:34;;;;;;;5.87;1.60;;;13.80;99.90;;;;;;21085381;22;20040;-79
2022/10/14 19:37:35;;;;;;;4.30;1.43;;;13.80;99.90;;;;;;20899111;28;20063;-78
2022/10/14 19:47:36;;;;;;;3.90;1.30;;;13.70;99.90;;;;;;20909792;28;20033;-78
2022/10/14 19:57:36;;;;;;;1.57;1.10;;;13.70;99.90;;;;;;20913499;28;20060;-78
2022/10/14 20:07:37;;;;;;;5.10;1.37;;;13.70;99.90;;;;;;20909634;28;20040;-77
2022/10/14 20:17:38;;;;;;;4.20;1.40;;;13.60;99.90;;;;;;20912610;28;20483;-78
2022/10/14 20:27:39;;;;;;;4.63;2.20;;;13.70;99.90;;;;;;20912981;28;20040;-78
2022/10/14 20:37:39;;;;;;;5.17;2.10;;;13.60;99.90;;;;;;20881505;28;20094;-78
2022/10/14 20:47:40;;;;;;;4.80;2.50;;;13.60;99.90;;;;;;20912879;28;20033;-77
2022/10/14 20:57:41;;;;;;;11.07;3.37;;;13.50;99.90;;;;;;20923753;28;20116;-79
2022/10/14 21:07:42;;;;;;;5.90;3.13;;;13.60;99.90;;;;;;20902485;28;20160;-78
2022/10/14 21:17:48;;;;;;;3.30;2.43;;;13.60;99.90;;;;;;20908233;28;20125;-79
2022/10/14 21:27:49;;;;;;;4.40;2.75;;;13.50;99.90;;;;;;20890572;28;20036;-79
2022/10/14 21:37:53;;;;;;;6.13;3.77;;;13.40;99.90;;;;;;20907962;28;20590;-78
2022/10/14 21:47:57;;;;;;;4.78;3.30;;;13.40;99.90;;;;;;20926624;28;20376;-80
2022/10/14 21:58:01;;;;;;;5.70;3.50;;;13.50;99.90;;;;;;20910618;28;20056;-78
2022/10/14 22:08:02;;;;;;;4.00;2.50;;;13.50;99.90;;;;;;20910234;28;20053;-79
2022/10/14 22:18:03;;;;;;;7.50;2.97;;;13.50;99.90;;;;;;20950728;28;20082;-79
2022/10/14 22:28:04;;;;;;;4.77;3.40;;;13.60;99.90;;;;;;20913566;28;20059;-79
2022/10/14 22:38:05;;;;;;;29.00;4.15;;;13.50;99.90;;;;;;20928731;28;20123;-78
2022/10/14 22:48:06;;;;;;;5.30;2.87;;;13.50;99.90;;;;;;20927851;28;20048;-78
2022/10/14 22:58:07;;;;;;;5.20;2.70;;;13.50;99.90;;;;;;20907790;28;20475;-78
2022/10/14 23:08:10;;;;;;;4.10;2.50;;;13.50;99.90;;;;;;20924753;28;20489;-79
2022/10/14 23:18:11;;;;;;;5.63;2.05;;;13.50;99.90;;;;;;20923792;28;20499;-78
2022/10/14 23:28:11;;;;;;;7.30;1.60;;;13.40;99.90;;;;;;20923154;28;20029;-79
2022/10/14 23:38:12;;;;;;;1.70;1.40;;;13.50;99.90;;;;;;20904920;28;20040;-78
2022/10/14 23:48:13;;;;;;;202.20;9.07;;;13.60;99.90;;;;;;20921655;28;20112;-78
2022/10/14 23:58:14;;;;;;;65.67;4.43;;;13.60;99.90;;;;;;20902051;28;20056;-79
